createdAt,value
2023-02-25T00:08:05.472Z,15.40
2023-02-25T00:16:27.610Z,14.80
2023-02-25T00:20:56.876Z,11.20
2023-02-25T00:25:25.418Z,8.30
2023-02-25T00:33:50.803Z,5.30
2023-02-25T00:38:16.064Z,2.90
2023-02-25T00:42:33.696Z,3.10
2023-02-25T00:47:04.285Z,2.90
2023-02-25T01:09:56.265Z,3.50
2023-02-25T01:14:25.597Z,6.20
2023-02-25T01:18:33.683Z,3.00
2023-02-25T01:22:52.106Z,2.30
2023-02-25T01:27:12.335Z,3.40
2023-02-25T01:31:11.538Z,2.30
2023-02-25T01:39:36.781Z,2.20
2023-02-25T01:43:58.873Z,1.50
2023-02-25T01:48:26.624Z,3.50
2023-02-25T01:52:56.059Z,2.80
2023-02-25T01:57:25.208Z,2.50
2023-02-25T02:01:54.129Z,2.70
2023-02-25T02:06:24.996Z,1.60
2023-02-25T02:14:51.309Z,2.10
2023-02-25T02:19:20.486Z,2.90
2023-02-25T02:23:55.664Z,1.70
2023-02-25T02:50:52.736Z,1.70
2023-02-25T02:55:22.326Z,1.80
2023-02-25T02:59:46.244Z,2.30
2023-02-25T03:04:19.200Z,2.60
2023-02-25T03:08:32.330Z,2.50
2023-02-25T03:34:02.503Z,4.20
2023-02-25T03:38:22.128Z,3.50
2023-02-25T03:42:52.716Z,4.50
2023-02-25T04:00:09.532Z,6.30
2023-02-25T04:04:18.680Z,7.40
2023-02-25T04:25:35.476Z,5.70
2023-02-25T04:30:04.885Z,5.00
2023-02-25T04:34:33.915Z,5.50
2023-02-25T04:39:02.449Z,6.80
2023-02-25T04:43:14.730Z,5.80
2023-02-25T04:47:42.522Z,5.70
2023-02-25T05:17:56.581Z,4.80
2023-02-25T05:22:20.970Z,5.80
2023-02-25T05:39:06.420Z,3.70
2023-02-25T05:43:35.607Z,3.90
2023-02-25T05:48:05.969Z,3.80
2023-02-25T05:52:36.560Z,3.60
2023-02-25T08:03:08.621Z,1.10
2023-02-25T08:19:08.784Z,1.90
2023-02-25T08:23:25.821Z,2.10
2023-02-25T08:27:31.161Z,0.80
2023-02-25T08:31:41.605Z,1.10
2023-02-25T08:35:44.718Z,1.90
2023-02-25T09:00:59.446Z,2.80
2023-02-25T09:05:20.799Z,2.30
2023-02-25T09:09:50.309Z,2.20
2023-02-25T09:14:01.021Z,1.50
2023-02-25T09:18:30.383Z,2.50
2023-02-25T09:22:51.015Z,2.10
2023-02-25T09:27:13.510Z,2.80
2023-02-25T09:31:36.220Z,3.30
2023-02-25T09:35:43.924Z,1.60
2023-02-25T09:40:02.237Z,1.50
2023-02-25T10:16:20.683Z,2.80
2023-02-25T10:20:52.193Z,1.30
2023-02-25T10:25:13.513Z,1.90
2023-02-25T10:29:40.440Z,1.60
2023-02-25T10:34:08.979Z,4.00
2023-02-25T10:43:31.308Z,5.00
2023-02-25T10:48:06.596Z,1.90
2023-02-25T10:52:41.961Z,3.00
2023-02-25T10:56:44.098Z,1.70
2023-02-25T11:01:22.648Z,2.80
2023-02-25T11:05:48.767Z,1.00
2023-02-25T11:10:20.757Z,1.40
2023-02-25T11:14:43.852Z,1.90
2023-02-25T11:58:26.500Z,2.00
2023-02-25T12:03:10.708Z,3.60
2023-02-25T12:08:14.523Z,2.10
2023-02-25T12:26:50.314Z,3.30
2023-02-25T12:31:46.094Z,4.90
2023-02-25T12:36:14.242Z,3.20
2023-02-25T12:41:12.136Z,2.40
2023-02-25T12:45:59.727Z,8.10
2023-02-25T12:50:31.873Z,2.20
2023-02-25T12:54:56.972Z,2.60
2023-02-25T12:59:19.853Z,3.00
2023-02-25T13:04:00.594Z,3.80
2023-02-25T13:08:28.937Z,3.50
2023-02-25T13:55:07.384Z,4.80
2023-02-25T14:00:07.312Z,2.30
2023-02-25T14:04:42.498Z,5.40
2023-02-25T14:08:53.847Z,3.00
2023-02-25T14:13:40.011Z,4.30
2023-02-25T14:18:13.462Z,4.60
2023-02-25T14:22:42.816Z,3.40
2023-02-25T14:26:54.013Z,3.30
2023-02-25T14:31:44.948Z,3.70
2023-02-25T14:36:09.876Z,3.40
2023-02-25T14:40:43.409Z,4.90
2023-02-25T14:45:08.931Z,3.40
2023-02-25T14:49:50.984Z,4.50
2023-02-25T14:54:24.567Z,4.60
2023-02-25T14:58:43.716Z,4.80
2023-02-25T15:23:57.428Z,4.70
2023-02-25T15:28:24.898Z,5.00
2023-02-25T15:33:11.520Z,5.60
2023-02-25T15:56:46.861Z,9.00
2023-02-25T16:01:27.365Z,6.90
2023-02-25T16:05:45.926Z,7.50
2023-02-25T16:10:15.104Z,7.20
2023-02-25T16:14:56.662Z,5.50
2023-02-25T16:32:43.406Z,4.40
2023-02-25T16:37:01.491Z,4.30
2023-02-25T16:55:31.001Z,4.90
2023-02-25T17:00:03.749Z,6.70
2023-02-25T17:26:18.763Z,6.00
2023-02-25T17:30:34.089Z,6.00
2023-02-25T17:35:03.753Z,6.30
2023-02-25T17:39:40.047Z,5.20
2023-02-25T17:44:17.181Z,5.10
2023-02-25T18:10:37.755Z,5.20
2023-02-25T18:15:04.782Z,4.90
2023-02-25T18:19:36.329Z,3.00
2023-02-25T18:24:14.648Z,3.70
2023-02-25T18:33:00.361Z,5.40
2023-02-25T18:49:57.250Z,5.90
2023-02-25T18:54:26.590Z,2.70
2023-02-25T18:58:31.638Z,5.10
2023-02-25T19:19:57.413Z,4.60
2023-02-25T19:24:13.421Z,5.00
2023-02-25T19:28:24.513Z,4.60
2023-02-25T19:59:18.973Z,5.00
2023-02-25T20:03:48.663Z,3.80
2023-02-25T20:08:19.395Z,5.40
2023-02-25T20:30:56.718Z,17.80
2023-02-25T20:35:26.237Z,12.10
2023-02-25T20:40:00.338Z,11.50
2023-02-25T20:44:28.784Z,10.00
2023-02-25T20:48:58.228Z,6.70
2023-02-25T20:53:27.718Z,6.80
2023-02-25T20:57:47.425Z,6.00
2023-02-25T21:23:30.174Z,5.20
2023-02-25T21:28:00.037Z,5.80
2023-02-25T21:32:30.274Z,9.40
2023-02-25T21:53:57.628Z,7.10
2023-02-25T21:58:10.939Z,8.80
2023-02-25T22:02:33.171Z,5.90
2023-02-25T22:19:47.287Z,5.40
2023-02-25T22:24:17.093Z,5.20
2023-02-25T22:28:37.950Z,6.00
2023-02-25T22:58:43.581Z,6.90
2023-02-25T23:02:55.105Z,6.80
2023-02-25T23:07:14.255Z,4.80
2023-02-25T23:11:49.744Z,6.50
2023-02-25T23:15:59.674Z,7.90
2023-02-25T23:20:19.380Z,6.10
2023-02-25T23:24:49.902Z,7.60
2023-02-25T23:42:10.401Z,5.30
2023-02-25T23:46:45.699Z,10.50
2023-02-25T23:51:15.288Z,6.70
2023-02-25T23:55:37.273Z,6.70
2023-02-25T23:59:54.250Z,7.70
